createdAt,value
2017-09-25T00:00:26.897Z,15.14
2017-09-25T00:05:22.767Z,15.10
2017-09-25T00:10:18.624Z,14.88
2017-09-25T00:15:14.657Z,14.81
2017-09-25T00:20:10.773Z,14.79
2017-09-25T00:25:07.462Z,14.78
2017-09-25T00:30:03.326Z,14.79
2017-09-25T00:34:59.602Z,14.62
2017-09-25T00:39:55.198Z,14.66
2017-09-25T00:44:51.186Z,14.59
2017-09-25T00:49:47.026Z,14.63
2017-09-25T00:54:43.026Z,14.59
2017-09-25T00:59:40.044Z,14.62
2017-09-25T01:04:35.642Z,14.51
2017-09-25T01:09:31.580Z,14.51
2017-09-25T01:14:28.391Z,14.59
2017-09-25T01:19:24.211Z,14.54
2017-09-25T01:24:20.526Z,14.59
2017-09-25T01:29:17.721Z,14.53
2017-09-25T01:34:14.366Z,14.43
2017-09-25T01:39:10.974Z,14.26
2017-09-25T01:44:06.593Z,14.30
2017-09-25T01:49:02.184Z,14.41
2017-09-25T01:53:59.016Z,14.36
2017-09-25T01:58:54.764Z,14.12
2017-09-25T02:03:50.588Z,14.10
2017-09-25T02:08:46.253Z,14.17
2017-09-25T02:13:43.118Z,14.12
2017-09-25T02:18:38.437Z,14.05
2017-09-25T02:23:34.258Z,13.90
2017-09-25T02:28:30.013Z,13.79
2017-09-25T02:33:25.783Z,13.72
2017-09-25T02:38:21.485Z,13.78
2017-09-25T02:43:17.429Z,13.77
2017-09-25T02:48:13.176Z,13.70
2017-09-25T02:53:08.940Z,13.59
2017-09-25T02:58:06.486Z,13.52
2017-09-25T03:03:01.998Z,13.54
2017-09-25T03:07:57.880Z,13.47
2017-09-25T03:12:53.369Z,13.50
2017-09-25T03:17:49.514Z,13.52
2017-09-25T03:22:45.636Z,13.59
2017-09-25T03:27:41.604Z,13.68
2017-09-25T03:32:38.157Z,13.67
2017-09-25T03:37:35.495Z,13.85
2017-09-25T03:42:31.211Z,13.79
2017-09-25T03:47:27.075Z,13.74
2017-09-25T03:52:22.821Z,13.78
2017-09-25T03:57:18.815Z,13.79
2017-09-25T04:02:14.328Z,13.95
2017-09-25T04:07:10.498Z,13.89
2017-09-25T04:12:06.502Z,13.92
2017-09-25T04:17:02.403Z,13.99
2017-09-25T04:21:59.194Z,14.08
2017-09-25T04:26:54.877Z,14.05
2017-09-25T04:31:50.522Z,14.05
2017-09-25T04:36:46.861Z,14.04
2017-09-25T04:41:42.592Z,14.15
2017-09-25T04:46:38.363Z,14.14
2017-09-25T04:51:34.608Z,14.14
2017-09-25T04:56:30.545Z,14.17
2017-09-25T05:01:27.145Z,14.15
2017-09-25T05:06:22.871Z,14.18
2017-09-25T05:11:18.731Z,14.10
2017-09-25T05:16:14.613Z,14.14
2017-09-25T05:21:10.109Z,14.15
2017-09-25T05:26:06.120Z,14.28
2017-09-25T05:31:03.377Z,14.26
2017-09-25T05:35:58.766Z,14.32
2017-09-25T05:40:55.095Z,14.32
2017-09-25T05:45:51.960Z,14.30
2017-09-25T05:50:48.562Z,14.32
2017-09-25T05:55:44.481Z,14.30
2017-09-25T06:00:40.331Z,14.43
2017-09-25T06:05:37.320Z,14.47
2017-09-25T06:10:32.970Z,14.44
2017-09-25T06:15:28.818Z,14.48
2017-09-25T06:20:24.749Z,14.43
2017-09-25T06:25:20.590Z,14.58
2017-09-25T06:30:16.678Z,14.55
2017-09-25T06:35:13.067Z,14.79
2017-09-25T06:40:08.862Z,14.82
2017-09-25T06:45:04.996Z,14.86
2017-09-25T06:50:00.945Z,14.88
2017-09-25T06:54:57.711Z,14.84
2017-09-25T06:59:53.668Z,14.97
2017-09-25T07:04:50.438Z,14.99
2017-09-25T07:09:47.044Z,15.09
2017-09-25T07:14:42.637Z,15.17
2017-09-25T07:19:39.171Z,15.29
2017-09-25T07:24:34.868Z,15.06
2017-09-25T07:29:30.743Z,15.22
2017-09-25T07:34:27.111Z,15.10
2017-09-25T07:39:23.271Z,15.06
2017-09-25T07:44:19.033Z,15.17
2017-09-25T07:49:15.277Z,15.49
2017-09-25T07:54:10.950Z,15.62
2017-09-25T07:59:07.001Z,15.76
2017-09-25T08:04:02.795Z,15.86
2017-09-25T08:08:58.495Z,16.04
2017-09-25T08:13:55.052Z,16.10
2017-09-25T08:18:51.024Z,15.94
2017-09-25T08:23:47.220Z,16.02
2017-09-25T08:28:44.230Z,16.28
2017-09-25T08:33:40.331Z,16.32
2017-09-25T08:38:36.216Z,16.28
2017-09-25T08:43:32.427Z,16.20
2017-09-25T08:48:28.125Z,16.41
2017-09-25T08:53:25.296Z,16.49
2017-09-25T08:58:21.167Z,16.75
2017-09-25T09:03:17.473Z,17.08
2017-09-25T09:08:14.622Z,17.36
2017-09-25T09:13:10.272Z,17.60
2017-09-25T09:18:07.221Z,17.44
2017-09-25T09:23:03.148Z,17.38
2017-09-25T09:27:59.078Z,17.44
2017-09-25T09:32:55.947Z,17.52
2017-09-25T09:37:51.591Z,17.64
2017-09-25T09:42:47.820Z,17.79
2017-09-25T09:47:43.662Z,17.67
2017-09-25T09:52:39.563Z,17.72
2017-09-25T09:57:35.776Z,17.89
2017-09-25T10:02:31.663Z,17.89
2017-09-25T10:07:27.354Z,17.38
2017-09-25T10:12:24.470Z,17.74
2017-09-25T10:17:20.737Z,18.22
2017-09-25T10:22:16.890Z,18.40
2017-09-25T10:27:13.449Z,18.60
2017-09-25T10:32:09.665Z,17.80
2017-09-25T10:37:06.159Z,17.83
2017-09-25T10:42:01.467Z,17.97
2017-09-25T10:46:57.174Z,18.00
2017-09-25T10:51:53.245Z,17.97
2017-09-25T10:56:49.105Z,18.20
2017-09-25T11:01:45.155Z,18.10
2017-09-25T11:06:40.926Z,18.10
2017-09-25T11:11:37.938Z,17.89
2017-09-25T11:16:34.489Z,17.72
2017-09-25T11:21:31.516Z,17.85
2017-09-25T11:26:26.924Z,17.74
2017-09-25T11:31:23.863Z,17.90
2017-09-25T11:36:19.432Z,17.95
2017-09-25T11:41:15.249Z,17.98
2017-09-25T11:46:11.214Z,17.83
2017-09-25T11:51:06.977Z,17.49
2017-09-25T11:56:04.654Z,17.65
2017-09-25T12:01:00.178Z,17.38
2017-09-25T12:05:56.367Z,17.34
2017-09-25T12:10:52.197Z,17.33
2017-09-25T12:15:48.985Z,17.33
2017-09-25T12:20:44.941Z,17.56
2017-09-25T12:25:41.743Z,17.56
2017-09-25T12:30:37.333Z,17.68
2017-09-25T12:35:33.361Z,17.68
2017-09-25T12:40:29.305Z,17.67
2017-09-25T12:45:26.462Z,17.60
2017-09-25T12:50:23.164Z,17.56
2017-09-25T12:55:18.951Z,17.68
2017-09-25T13:00:15.720Z,17.44
2017-09-25T13:05:11.090Z,17.49
2017-09-25T13:10:06.934Z,17.56
2017-09-25T13:15:02.838Z,17.57
2017-09-25T13:19:59.636Z,17.54
2017-09-25T13:24:56.302Z,17.48
2017-09-25T13:29:51.792Z,17.54
2017-09-25T13:34:47.857Z,17.68
2017-09-25T13:39:43.805Z,17.63
2017-09-25T13:44:40.769Z,17.67
2017-09-25T13:49:36.256Z,17.63
2017-09-25T13:54:32.128Z,17.59
2017-09-25T14:04:28.466Z,17.90
2017-09-25T14:09:24.378Z,17.94
2017-09-25T14:14:20.069Z,17.87
2017-09-25T14:19:16.001Z,17.72
2017-09-25T14:24:11.796Z,17.82
2017-09-25T14:29:07.720Z,17.89
2017-09-25T14:34:03.479Z,17.90
2017-09-25T14:39:00.495Z,17.85
2017-09-25T14:43:55.969Z,17.87
2017-09-25T14:48:51.840Z,17.79
2017-09-25T14:53:47.497Z,17.68
2017-09-25T14:58:43.322Z,17.72
2017-09-25T15:03:40.305Z,17.70
2017-09-25T15:08:35.815Z,17.48
2017-09-25T15:13:31.442Z,17.48
2017-09-25T15:18:27.661Z,17.52
2017-09-25T15:23:24.458Z,17.49
2017-09-25T15:28:20.135Z,17.51
2017-09-25T15:33:16.099Z,17.38
2017-09-25T15:38:11.837Z,17.27
2017-09-25T15:43:07.617Z,17.30
2017-09-25T15:48:03.493Z,17.26
2017-09-25T15:52:59.503Z,17.29
2017-09-25T15:57:57.323Z,17.39
2017-09-25T16:02:53.801Z,17.33
2017-09-25T16:07:49.491Z,17.29
2017-09-25T16:12:45.405Z,17.27
2017-09-25T16:17:42.234Z,17.24
2017-09-25T16:22:39.084Z,17.20
2017-09-25T16:27:35.738Z,17.19
2017-09-25T16:32:31.329Z,17.15
2017-09-25T16:37:26.957Z,17.09
2017-09-25T16:42:24.019Z,16.99
2017-09-25T16:47:21.181Z,16.89
2017-09-25T16:52:16.877Z,16.90
2017-09-25T16:57:12.420Z,16.87
2017-09-25T17:02:08.361Z,16.78
2017-09-25T17:07:04.200Z,16.71
2017-09-25T17:12:01.387Z,16.66
2017-09-25T17:16:56.814Z,16.60
2017-09-25T17:21:53.582Z,16.47
2017-09-25T17:26:49.581Z,16.47
2017-09-25T17:31:45.411Z,16.43
2017-09-25T17:36:42.232Z,16.38
2017-09-25T17:41:37.907Z,16.33
2017-09-25T17:46:33.766Z,16.31
2017-09-25T17:51:30.764Z,16.31
2017-09-25T17:56:26.340Z,16.23
2017-09-25T18:01:22.208Z,16.24
2017-09-25T18:06:17.821Z,16.09
2017-09-25T18:11:14.602Z,16.00
2017-09-25T18:16:09.775Z,15.94
2017-09-25T18:21:05.342Z,15.95
2017-09-25T18:26:01.412Z,15.88
2017-09-25T18:30:58.199Z,15.76
2017-09-25T18:35:53.743Z,15.83
2017-09-25T18:40:49.754Z,15.76
2017-09-25T18:45:45.636Z,15.75
2017-09-25T18:50:41.699Z,15.75
2017-09-25T18:55:37.463Z,15.70
2017-09-25T19:00:33.014Z,15.67
2017-09-25T19:05:28.953Z,15.51
2017-09-25T19:10:25.796Z,15.51
2017-09-25T19:15:22.389Z,15.36
2017-09-25T19:20:17.798Z,15.27
2017-09-25T19:25:14.438Z,15.25
2017-09-25T19:30:09.970Z,15.25
2017-09-25T19:35:06.906Z,15.28
2017-09-25T19:40:02.369Z,15.19
2017-09-25T19:44:58.298Z,15.27
2017-09-25T19:49:53.946Z,15.06
2017-09-25T19:54:50.711Z,15.10
2017-09-25T19:59:47.646Z,15.15
2017-09-25T20:04:44.229Z,15.04
2017-09-25T20:09:40.700Z,15.07
2017-09-25T20:14:35.977Z,15.02
2017-09-25T20:19:32.673Z,14.97
2017-09-25T20:24:30.104Z,15.02
2017-09-25T20:29:25.914Z,14.97
2017-09-25T20:34:21.523Z,14.84
2017-09-25T20:39:18.261Z,14.73
2017-09-25T20:44:14.019Z,14.59
2017-09-25T20:49:10.966Z,14.51
2017-09-25T20:54:07.726Z,14.51
2017-09-25T20:59:03.074Z,14.54
2017-09-25T21:03:59.299Z,14.45
2017-09-25T21:08:55.220Z,14.51
2017-09-25T21:13:51.102Z,14.37
2017-09-25T21:18:47.234Z,14.44
2017-09-25T21:23:44.036Z,14.25
2017-09-25T21:28:39.194Z,14.37
2017-09-25T21:33:34.988Z,14.11
2017-09-25T21:38:31.642Z,13.92
2017-09-25T21:43:28.110Z,13.83
2017-09-25T21:48:23.581Z,13.83
2017-09-25T21:53:19.273Z,13.74
2017-09-25T21:58:15.385Z,13.75
2017-09-25T22:03:11.071Z,13.75
2017-09-25T22:08:07.773Z,13.71
2017-09-25T22:13:03.475Z,13.63
2017-09-25T22:17:59.584Z,13.53
2017-09-25T22:22:55.269Z,13.54
2017-09-25T22:27:51.166Z,13.42
2017-09-25T22:32:48.054Z,13.38
2017-09-25T22:37:43.393Z,13.20
2017-09-25T22:42:39.205Z,13.20
2017-09-25T22:47:34.806Z,13.20
2017-09-25T22:52:30.875Z,13.33
2017-09-25T22:57:27.404Z,13.22
2017-09-25T23:02:22.865Z,13.20
2017-09-25T23:07:18.662Z,13.30
2017-09-25T23:12:14.440Z,13.18
2017-09-25T23:17:10.092Z,13.19
2017-09-25T23:22:05.799Z,13.09
2017-09-25T23:27:01.792Z,12.91
2017-09-25T23:31:57.920Z,12.83
2017-09-25T23:36:54.676Z,12.86
2017-09-25T23:41:51.140Z,12.85
2017-09-25T23:46:46.693Z,12.82
2017-09-25T23:51:43.456Z,12.73
2017-09-25T23:56:38.944Z,12.79
